Terminal Aerodrome Forecast
Issued by NWS Goodland, KS

Home | Current Version | Previous Version | Text Only | Print | Product List | Glossary On
Versions: 1 2 3 4 5 6 7 8 9 10 11 12 13 14 15
000
FTUS43 KGLD 180520
TAFGLD
TAF
KGLD 180520Z 1806/1906 15011KT P6SM SKC
     FM181100 20006KT P6SM SKC
     FM181800 17006KT P6SM SKC=

USA.gov is the U.S. government's official web portal to all federal, state and local government web resources and services.